createdAt,value
2022-12-20T00:01:25.279Z,0.55
2022-12-20T00:03:54.163Z,0.56
2022-12-20T00:06:22.696Z,0.56
2022-12-20T00:08:54.700Z,0.58
2022-12-20T00:11:21.952Z,0.58
2022-12-20T00:13:49.562Z,0.59
2022-12-20T00:16:20.267Z,0.61
2022-12-20T00:18:51.109Z,0.54
2022-12-20T00:21:18.452Z,0.62
2022-12-20T00:23:45.738Z,0.63
2022-12-20T00:26:16.226Z,0.62
2022-12-20T00:28:45.689Z,0.65
2022-12-20T00:31:15.750Z,0.50
2022-12-20T00:33:45.410Z,0.67
2022-12-20T00:36:13.665Z,0.69
2022-12-20T00:38:41.050Z,0.68
2022-12-20T00:41:14.469Z,0.72
2022-12-20T00:43:42.511Z,0.70
2022-12-20T00:46:12.539Z,0.74
2022-12-20T00:48:40.060Z,0.74
2022-12-20T00:51:12.195Z,0.69
2022-12-20T00:53:40.266Z,0.74
2022-12-20T00:56:08.545Z,0.74
2022-12-20T00:58:38.254Z,0.71
2022-12-20T01:01:07.291Z,0.73
2022-12-20T01:03:34.966Z,0.68
2022-12-20T01:06:03.619Z,0.70
2022-12-20T01:08:32.014Z,0.75
2022-12-20T01:11:01.519Z,0.75
2022-12-20T01:13:29.024Z,0.78
2022-12-20T01:15:56.781Z,0.77
2022-12-20T01:18:24.053Z,0.78
2022-12-20T01:21:01.678Z,0.77
2022-12-20T01:23:29.160Z,0.75
2022-12-20T01:25:59.088Z,0.74
2022-12-20T01:28:26.672Z,0.73
2022-12-20T01:30:54.246Z,0.71
2022-12-20T01:33:22.056Z,0.78
2022-12-20T01:35:59.857Z,0.76
2022-12-20T01:38:28.001Z,0.79
2022-12-20T01:40:57.717Z,0.79
2022-12-20T01:43:27.493Z,0.78
2022-12-20T01:45:54.887Z,0.80
2022-12-20T01:48:26.518Z,0.80
2022-12-20T01:50:54.153Z,0.73
2022-12-20T01:53:24.893Z,0.77
2022-12-20T01:55:52.787Z,0.80
2022-12-20T01:58:22.013Z,0.81
2022-12-20T02:00:49.660Z,0.80
2022-12-20T02:03:17.353Z,0.78
2022-12-20T02:05:47.225Z,0.81
2022-12-20T02:08:18.685Z,0.82
2022-12-20T02:11:20.386Z,0.79
2022-12-20T02:14:32.997Z,0.81
2022-12-20T02:17:14.820Z,0.80
2022-12-20T02:20:00.452Z,0.81
2022-12-20T02:22:52.851Z,0.81
2022-12-20T02:25:31.918Z,0.82
2022-12-20T02:28:19.161Z,0.79
2022-12-20T02:30:49.499Z,0.86
2022-12-20T02:33:18.442Z,0.82
2022-12-20T02:35:45.968Z,0.88
2022-12-20T02:38:34.309Z,0.86
2022-12-20T02:41:30.378Z,0.87
2022-12-20T02:44:25.658Z,0.88
2022-12-20T02:46:54.505Z,0.89
2022-12-20T02:49:26.914Z,0.89
2022-12-20T02:51:56.523Z,0.88
2022-12-20T02:54:24.774Z,0.89
2022-12-20T02:57:09.443Z,0.88
2022-12-20T02:59:43.970Z,0.89
2022-12-20T03:02:13.047Z,0.91
2022-12-20T03:04:42.419Z,0.92
2022-12-20T03:07:13.867Z,0.92
2022-12-20T03:09:44.355Z,0.96
2022-12-20T03:12:14.415Z,0.98
2022-12-20T03:14:42.481Z,1.01
2022-12-20T03:17:11.402Z,1.01
2022-12-20T03:19:38.824Z,0.97
2022-12-20T03:22:06.418Z,1.03
2022-12-20T03:24:34.119Z,1.03
2022-12-20T03:27:02.329Z,1.02
2022-12-20T03:29:29.672Z,1.04
2022-12-20T03:31:57.064Z,1.04
2022-12-20T03:34:24.709Z,1.05
2022-12-20T03:36:51.993Z,1.05
2022-12-20T03:39:19.385Z,1.07
2022-12-20T03:41:46.769Z,1.08
2022-12-20T03:44:18.362Z,1.08
2022-12-20T03:46:45.721Z,1.10
2022-12-20T03:49:13.060Z,1.11
2022-12-20T03:51:46.089Z,1.07
2022-12-20T03:54:13.799Z,1.10
2022-12-20T03:57:04.324Z,1.05
2022-12-20T03:59:32.221Z,1.08
2022-12-20T04:02:00.833Z,1.11
2022-12-20T04:04:30.245Z,1.08
2022-12-20T04:06:57.607Z,1.13
2022-12-20T04:09:25.377Z,1.10
2022-12-20T04:11:58.413Z,1.15
2022-12-20T04:14:27.303Z,1.17
2022-12-20T04:16:54.724Z,1.18
2022-12-20T04:19:23.671Z,1.18
2022-12-20T04:21:51.173Z,1.21
2022-12-20T04:24:20.204Z,1.21
2022-12-20T04:27:09.094Z,1.20
2022-12-20T04:29:36.700Z,1.19
2022-12-20T04:32:06.030Z,1.22
2022-12-20T04:34:33.423Z,1.23
2022-12-20T04:37:00.731Z,1.25
2022-12-20T04:39:38.669Z,1.25
2022-12-20T04:42:24.983Z,1.24
2022-12-20T04:44:53.905Z,1.25
2022-12-20T04:47:24.955Z,1.21
2022-12-20T04:49:53.569Z,1.22
2022-12-20T04:52:45.526Z,1.23
2022-12-20T04:55:15.174Z,1.25
2022-12-20T04:57:42.519Z,1.25
2022-12-20T05:00:11.021Z,1.22
2022-12-20T05:02:43.336Z,1.24
2022-12-20T05:05:14.490Z,1.26
2022-12-20T05:07:47.923Z,1.26
2022-12-20T05:10:15.657Z,1.28
2022-12-20T05:12:44.924Z,1.28
2022-12-20T05:15:19.902Z,1.27
2022-12-20T05:17:47.354Z,1.28
2022-12-20T05:20:14.885Z,1.28
2022-12-20T05:23:03.154Z,1.29
2022-12-20T05:25:48.979Z,1.30
2022-12-20T05:28:17.240Z,1.31
2022-12-20T05:30:45.810Z,1.32
2022-12-20T05:33:14.371Z,1.33
2022-12-20T05:35:44.800Z,1.33
2022-12-20T05:38:14.971Z,1.35
2022-12-20T05:40:43.448Z,1.32
2022-12-20T05:43:12.815Z,1.38
2022-12-20T05:45:48.421Z,1.37
2022-12-20T05:48:24.110Z,1.39
2022-12-20T05:50:53.159Z,1.41
2022-12-20T05:53:27.124Z,1.41
2022-12-20T05:55:58.578Z,1.36
2022-12-20T05:58:35.585Z,1.38
2022-12-20T06:01:08.266Z,1.38
2022-12-20T06:03:39.739Z,1.37
2022-12-20T06:06:14.647Z,1.33
2022-12-20T06:08:44.833Z,1.31
2022-12-20T06:11:17.769Z,1.31
2022-12-20T06:13:53.382Z,1.32
2022-12-20T06:16:23.329Z,1.32
2022-12-20T06:18:53.675Z,1.32
2022-12-20T06:21:21.902Z,1.32
2022-12-20T06:23:49.867Z,1.32
2022-12-20T06:26:19.315Z,1.35
2022-12-20T06:28:54.853Z,1.38
2022-12-20T06:31:26.397Z,1.39
2022-12-20T06:33:55.363Z,1.39
2022-12-20T06:36:25.499Z,1.40
2022-12-20T06:38:53.424Z,1.41
2022-12-20T06:41:21.185Z,1.43
2022-12-20T06:43:48.544Z,1.42
2022-12-20T06:46:15.863Z,1.41
2022-12-20T06:48:44.679Z,1.39
2022-12-20T06:51:13.051Z,1.36
2022-12-20T06:53:40.653Z,1.44
2022-12-20T06:56:08.002Z,1.46
2022-12-20T06:58:35.231Z,1.48
2022-12-20T07:01:02.835Z,1.50
2022-12-20T07:03:30.350Z,1.52
2022-12-20T07:05:57.654Z,1.51
2022-12-20T07:08:26.452Z,1.51
2022-12-20T07:10:54.773Z,1.53
2022-12-20T07:13:22.153Z,1.54
2022-12-20T07:15:49.584Z,1.46
2022-12-20T07:18:16.859Z,1.54
2022-12-20T07:20:44.209Z,1.58
2022-12-20T07:23:11.526Z,1.57
2022-12-20T07:25:38.871Z,1.59
2022-12-20T07:28:06.382Z,1.59
2022-12-20T07:30:33.581Z,1.60
2022-12-20T07:33:01.064Z,1.59
2022-12-20T07:35:28.520Z,1.64
2022-12-20T07:37:55.855Z,1.65
2022-12-20T07:40:23.103Z,1.66
2022-12-20T07:42:50.382Z,1.68
2022-12-20T07:45:19.199Z,1.68
2022-12-20T07:47:46.678Z,1.66
2022-12-20T07:50:14.438Z,1.68
2022-12-20T07:52:46.757Z,1.74
2022-12-20T07:55:15.481Z,1.78
2022-12-20T07:57:49.817Z,1.75
2022-12-20T08:00:19.242Z,1.80
2022-12-20T08:02:55.312Z,1.82
2022-12-20T08:05:23.465Z,1.84
2022-12-20T08:07:58.457Z,1.85
2022-12-20T08:10:27.905Z,1.87
2022-12-20T08:12:55.961Z,1.84
2022-12-20T08:15:23.875Z,1.89
2022-12-20T08:17:51.459Z,1.89
2022-12-20T08:20:18.768Z,1.91
2022-12-20T08:22:45.966Z,1.86
2022-12-20T08:25:13.583Z,1.92
2022-12-20T08:27:40.781Z,1.87
2022-12-20T08:30:10.834Z,1.94
2022-12-20T08:32:38.283Z,1.93
2022-12-20T08:35:06.477Z,1.93
2022-12-20T08:37:34.494Z,1.97
2022-12-20T08:40:02.394Z,2.00
2022-12-20T08:42:30.721Z,2.02
2022-12-20T08:44:58.028Z,1.97
2022-12-20T08:47:25.464Z,2.06
2022-12-20T08:49:52.778Z,2.10
2022-12-20T08:52:20.022Z,2.12
2022-12-20T08:54:47.546Z,2.14
2022-12-20T08:57:14.968Z,2.17
2022-12-20T08:59:42.415Z,2.20
2022-12-20T09:02:09.870Z,2.27
2022-12-20T09:04:37.313Z,2.33
2022-12-20T09:07:04.713Z,2.41
2022-12-20T09:09:32.134Z,2.48
2022-12-20T09:11:59.754Z,2.54
2022-12-20T09:14:27.012Z,2.56
2022-12-20T09:16:54.372Z,2.62
2022-12-20T09:19:22.050Z,2.61
2022-12-20T09:21:49.920Z,2.62
2022-12-20T09:24:18.003Z,2.62
2022-12-20T09:26:45.847Z,2.58
2022-12-20T09:29:25.017Z,2.56
2022-12-20T09:31:54.861Z,2.51
2022-12-20T09:34:21.981Z,2.53
2022-12-20T09:36:49.398Z,2.47
2022-12-20T09:39:16.822Z,2.51
2022-12-20T09:41:45.249Z,2.53
2022-12-20T09:44:34.884Z,2.51
2022-12-20T09:47:10.714Z,2.51
2022-12-20T09:49:42.295Z,2.50
2022-12-20T09:52:31.207Z,2.53
2022-12-20T09:55:13.985Z,2.53
2022-12-20T09:58:02.085Z,2.56
2022-12-20T10:00:30.932Z,2.57
2022-12-20T10:03:08.612Z,2.59
2022-12-20T10:05:49.947Z,2.61
2022-12-20T10:08:26.099Z,2.62
2022-12-20T10:11:09.079Z,2.64
2022-12-20T10:14:11.799Z,2.62
2022-12-20T10:16:58.867Z,2.63
2022-12-20T10:20:01.401Z,2.66
2022-12-20T10:22:50.174Z,2.66
2022-12-20T10:25:25.549Z,2.64
2022-12-20T10:27:57.365Z,2.69
2022-12-20T10:30:27.454Z,2.74
2022-12-20T10:32:58.485Z,2.74
2022-12-20T10:35:31.857Z,2.76
2022-12-20T10:38:09.105Z,2.76
2022-12-20T10:41:19.546Z,2.76
2022-12-20T10:44:06.857Z,2.75
2022-12-20T10:46:47.939Z,2.74
2022-12-20T10:49:35.529Z,2.75
2022-12-20T10:52:09.491Z,2.75
2022-12-20T10:54:40.123Z,2.74
2022-12-20T10:57:17.149Z,2.75
2022-12-20T11:00:01.744Z,2.75
2022-12-20T11:02:41.512Z,2.76
2022-12-20T11:05:10.884Z,2.77
2022-12-20T11:08:24.703Z,2.75
2022-12-20T11:10:40.066Z,2.75
2022-12-20T11:13:19.752Z,2.77
2022-12-20T11:15:54.958Z,2.79
2022-12-20T11:18:37.109Z,2.78
2022-12-20T11:21:28.081Z,2.82
2022-12-20T11:24:33.028Z,2.80
2022-12-20T11:27:37.786Z,2.81
2022-12-20T11:30:24.699Z,2.85
2022-12-20T11:33:30.513Z,2.87
2022-12-20T11:36:11.206Z,2.88
2022-12-20T11:38:45.738Z,2.89
2022-12-20T11:41:39.173Z,2.86
2022-12-20T11:44:26.643Z,2.91
2022-12-20T11:47:27.016Z,2.94
2022-12-20T11:50:35.747Z,2.92
2022-12-20T11:53:12.413Z,2.87
2022-12-20T11:55:46.325Z,2.90
2022-12-20T11:58:19.063Z,2.98
2022-12-20T12:00:53.393Z,2.93
2022-12-20T12:03:28.780Z,2.99
2022-12-20T12:06:32.127Z,3.01
2022-12-20T12:09:24.527Z,3.03
2022-12-20T12:12:09.686Z,3.00
2022-12-20T12:14:46.420Z,3.04
2022-12-20T12:17:22.158Z,2.96
2022-12-20T12:19:51.388Z,3.03
2022-12-20T12:22:28.745Z,3.01
2022-12-20T12:25:00.281Z,3.00
2022-12-20T12:27:28.792Z,2.99
2022-12-20T12:29:58.893Z,3.05
2022-12-20T12:32:26.274Z,3.04
2022-12-20T12:35:33.054Z,3.04
2022-12-20T12:38:18.783Z,3.06
2022-12-20T12:40:55.031Z,3.06
2022-12-20T12:44:15.938Z,3.06
2022-12-20T12:46:43.873Z,3.13
2022-12-20T12:49:18.903Z,3.15
2022-12-20T12:51:59.910Z,3.18
2022-12-20T12:54:31.102Z,3.13
2022-12-20T12:57:12.939Z,3.18
2022-12-20T12:59:41.966Z,3.21
2022-12-20T13:02:15.826Z,3.21
2022-12-20T13:05:01.495Z,3.21
2022-12-20T13:07:35.520Z,3.21
2022-12-20T13:10:25.693Z,3.20
2022-12-20T13:12:53.025Z,3.22
2022-12-20T13:15:20.528Z,3.21
2022-12-20T13:18:23.084Z,3.22
2022-12-20T13:21:28.679Z,3.22
2022-12-20T13:24:50.992Z,3.21
2022-12-20T13:27:40.630Z,3.22
2022-12-20T13:30:07.956Z,3.22
2022-12-20T13:33:17.810Z,3.23
2022-12-20T13:35:55.762Z,3.22
2022-12-20T13:38:57.151Z,3.21
2022-12-20T13:41:45.808Z,3.22
2022-12-20T13:44:15.990Z,3.22
2022-12-20T13:46:47.601Z,3.22
2022-12-20T13:49:27.124Z,3.23
2022-12-20T13:52:12.379Z,3.20
2022-12-20T13:54:49.105Z,3.22
2022-12-20T13:57:44.085Z,3.21
2022-12-20T14:00:23.217Z,3.21
2022-12-20T14:02:50.914Z,3.19
2022-12-20T14:05:27.203Z,3.18
2022-12-20T14:08:04.193Z,3.17
2022-12-20T14:10:33.927Z,3.17
2022-12-20T14:13:01.952Z,3.12
2022-12-20T14:15:35.031Z,3.13
2022-12-20T14:18:18.195Z,3.13
2022-12-20T14:20:51.671Z,3.10
2022-12-20T14:23:22.971Z,3.11
2022-12-20T14:25:58.715Z,3.10
2022-12-20T14:28:50.392Z,3.05
2022-12-20T14:31:23.507Z,3.03
2022-12-20T14:33:52.223Z,3.03
2022-12-20T14:36:21.631Z,3.02
2022-12-20T14:38:52.926Z,2.94
2022-12-20T14:41:46.446Z,2.97
2022-12-20T14:44:18.206Z,2.94
2022-12-20T14:46:57.364Z,2.93
2022-12-20T14:49:48.736Z,2.89
2022-12-20T14:52:16.224Z,2.89
2022-12-20T14:55:08.822Z,2.91
2022-12-20T14:57:37.114Z,2.91
2022-12-20T15:00:19.281Z,2.91
2022-12-20T15:02:56.445Z,2.90
2022-12-20T15:05:36.209Z,2.91
2022-12-20T15:08:27.565Z,2.92
2022-12-20T15:11:03.920Z,2.92
2022-12-20T15:13:34.846Z,2.83
2022-12-20T15:16:14.157Z,2.93
2022-12-20T15:18:41.785Z,2.93
2022-12-20T15:21:30.399Z,2.87
2022-12-20T15:24:00.497Z,2.91
2022-12-20T15:26:29.207Z,2.90
2022-12-20T15:28:56.681Z,2.92
2022-12-20T15:31:32.458Z,2.90
2022-12-20T15:34:02.694Z,2.93
2022-12-20T15:36:30.637Z,2.94
2022-12-20T15:39:15.231Z,2.94
2022-12-20T15:41:47.601Z,2.92
2022-12-20T15:44:26.022Z,2.99
2022-12-20T15:46:53.761Z,2.99
2022-12-20T15:49:23.910Z,3.02
2022-12-20T15:51:53.492Z,3.05
2022-12-20T15:54:30.659Z,3.08
2022-12-20T15:57:03.249Z,3.10
2022-12-20T16:02:25.263Z,3.13
2022-12-20T16:04:54.221Z,3.11
2022-12-20T16:07:22.592Z,3.10
2022-12-20T16:09:50.127Z,3.13
2022-12-20T16:12:23.041Z,3.11
2022-12-20T16:14:50.453Z,3.13
2022-12-20T16:17:17.882Z,3.07
2022-12-20T16:19:45.200Z,3.08
2022-12-20T16:22:22.614Z,3.09
2022-12-20T16:24:50.188Z,3.08
2022-12-20T16:27:17.675Z,3.14
2022-12-20T16:29:45.752Z,3.14
2022-12-20T16:32:18.519Z,3.14
2022-12-20T16:34:46.388Z,3.15
2022-12-20T16:37:14.273Z,3.14
2022-12-20T16:39:42.642Z,3.14
2022-12-20T16:42:23.232Z,3.13
2022-12-20T16:44:54.490Z,3.14
2022-12-20T16:47:22.463Z,3.11
2022-12-20T16:49:53.344Z,3.15
2022-12-20T16:52:23.039Z,3.15
2022-12-20T16:54:51.646Z,3.17
2022-12-20T16:57:19.485Z,3.19
2022-12-20T16:59:46.912Z,3.22
2022-12-20T17:02:29.419Z,3.20
2022-12-20T17:04:57.613Z,3.25
2022-12-20T17:07:25.393Z,3.09
2022-12-20T17:10:11.551Z,3.26
2022-12-20T17:12:39.110Z,3.27
2022-12-20T17:15:07.173Z,3.33
2022-12-20T17:17:34.682Z,3.33
2022-12-20T17:20:01.965Z,3.33
2022-12-20T17:22:29.542Z,3.32
2022-12-20T17:24:57.280Z,3.27
2022-12-20T17:27:25.159Z,3.16
2022-12-20T17:29:52.474Z,3.32
2022-12-20T17:32:25.852Z,3.30
2022-12-20T17:34:53.872Z,3.29
2022-12-20T17:37:21.765Z,3.30
2022-12-20T17:39:49.491Z,3.30
2022-12-20T17:42:17.272Z,3.13
2022-12-20T17:44:46.555Z,3.27
2022-12-20T17:47:14.190Z,3.27
2022-12-20T17:49:41.474Z,3.26
2022-12-20T17:52:15.984Z,3.25
2022-12-20T17:54:43.809Z,3.26
2022-12-20T17:57:17.449Z,3.26
2022-12-20T17:59:44.899Z,3.26
2022-12-20T18:02:30.556Z,3.22
2022-12-20T18:04:58.133Z,3.24
2022-12-20T18:07:25.697Z,3.22
2022-12-20T18:09:53.057Z,3.21
2022-12-20T18:12:20.668Z,3.19
2022-12-20T18:14:51.649Z,3.19
2022-12-20T18:17:19.122Z,3.17
2022-12-20T18:19:46.495Z,3.20
2022-12-20T18:22:15.008Z,3.19
2022-12-20T18:24:42.405Z,3.20
2022-12-20T18:27:10.235Z,3.17
2022-12-20T18:29:37.509Z,3.17
2022-12-20T18:32:05.209Z,3.16
2022-12-20T18:34:32.678Z,3.15
2022-12-20T18:37:02.136Z,3.15
2022-12-20T18:39:29.577Z,3.13
2022-12-20T18:41:56.945Z,3.10
2022-12-20T18:44:24.689Z,3.06
2022-12-20T18:46:52.042Z,3.07
2022-12-20T18:49:19.599Z,3.03
2022-12-20T18:51:47.164Z,3.02
2022-12-20T18:54:15.157Z,2.99
2022-12-20T18:56:43.033Z,2.98
2022-12-20T18:59:12.681Z,2.95
2022-12-20T19:01:42.314Z,2.95
2022-12-20T19:04:22.516Z,2.92
2022-12-20T19:06:53.279Z,2.91
2022-12-20T19:09:20.689Z,2.91
2022-12-20T19:11:53.084Z,2.93
2022-12-20T19:14:23.840Z,2.87
2022-12-20T19:16:52.149Z,2.96
2022-12-20T19:19:20.811Z,2.98
2022-12-20T19:21:48.142Z,2.99
2022-12-20T19:24:15.564Z,3.00
2022-12-20T19:26:42.784Z,3.04
2022-12-20T19:29:11.750Z,2.92
2022-12-20T19:31:39.147Z,3.05
2022-12-20T19:34:11.223Z,3.03
2022-12-20T19:36:41.658Z,3.08
2022-12-20T19:39:16.530Z,3.09
2022-12-20T19:41:59.895Z,3.06
2022-12-20T19:44:33.875Z,3.09
2022-12-20T19:47:07.498Z,3.10
2022-12-20T19:49:36.467Z,3.09
2022-12-20T19:52:04.432Z,3.10
2022-12-20T19:54:31.946Z,3.08
2022-12-20T19:56:59.362Z,3.11
2022-12-20T19:59:26.834Z,3.11
2022-12-20T20:01:54.217Z,3.10
2022-12-20T20:04:21.793Z,3.13
2022-12-20T20:06:49.091Z,3.13
2022-12-20T20:09:16.553Z,3.06
2022-12-20T20:11:43.948Z,3.09
2022-12-20T20:14:11.410Z,3.14
2022-12-20T20:16:38.904Z,3.09
2022-12-20T20:19:06.434Z,3.15
2022-12-20T20:21:36.646Z,3.15
2022-12-20T20:24:04.489Z,3.13
2022-12-20T20:26:32.073Z,3.11
2022-12-20T20:29:01.299Z,2.98
2022-12-20T20:31:29.164Z,3.13
2022-12-20T20:33:58.514Z,3.11
2022-12-20T20:36:25.915Z,3.09
2022-12-20T20:38:53.123Z,2.92
2022-12-20T20:41:20.990Z,3.14
2022-12-20T20:43:49.724Z,3.15
2022-12-20T20:46:18.127Z,3.08
2022-12-20T20:48:46.340Z,3.11
2022-12-20T20:51:14.296Z,3.12
2022-12-20T20:53:42.032Z,3.09
2022-12-20T20:56:10.287Z,3.07
2022-12-20T20:58:38.252Z,3.06
2022-12-20T21:01:11.139Z,3.03
2022-12-20T21:03:38.990Z,3.02
2022-12-20T21:06:39.297Z,3.02
2022-12-20T21:08:54.871Z,2.98
2022-12-20T21:11:22.764Z,2.96
2022-12-20T21:13:50.506Z,2.97
2022-12-20T21:16:22.694Z,2.95
2022-12-20T21:18:54.920Z,2.96
2022-12-20T21:21:23.084Z,2.97
2022-12-20T21:23:51.364Z,2.98
2022-12-20T21:26:20.777Z,2.94
2022-12-20T21:28:48.642Z,2.98
2022-12-20T21:31:19.631Z,2.94
2022-12-20T21:33:47.190Z,2.97
2022-12-20T21:36:17.321Z,2.96
2022-12-20T21:38:50.547Z,2.90
2022-12-20T21:41:19.318Z,2.90
2022-12-20T21:43:46.762Z,2.95
2022-12-20T21:46:15.046Z,2.89
2022-12-20T21:48:44.610Z,2.89
2022-12-20T21:51:14.785Z,2.92
2022-12-20T21:53:43.060Z,2.89
2022-12-20T21:56:10.746Z,2.85
2022-12-20T21:58:38.167Z,2.86
2022-12-20T22:01:08.193Z,2.86
2022-12-20T22:03:36.013Z,2.84
2022-12-20T22:06:04.583Z,2.79
2022-12-20T22:08:33.782Z,2.80
2022-12-20T22:11:10.931Z,2.82
2022-12-20T22:13:42.039Z,2.77
2022-12-20T22:16:11.198Z,2.83
2022-12-20T22:18:39.938Z,2.82
2022-12-20T22:21:12.948Z,2.84
2022-12-20T22:23:40.981Z,2.79
2022-12-20T22:26:11.276Z,2.79
2022-12-20T22:28:40.203Z,2.79
2022-12-20T22:31:09.796Z,2.72
2022-12-20T22:33:38.440Z,2.76
2022-12-20T22:36:07.470Z,2.73
2022-12-20T22:38:34.985Z,2.73
2022-12-20T22:41:11.561Z,2.76
2022-12-20T22:43:41.234Z,2.75
2022-12-20T22:46:30.936Z,2.61
2022-12-20T22:48:59.534Z,2.74
2022-12-20T22:51:27.982Z,2.70
2022-12-20T22:53:57.911Z,2.65
2022-12-20T22:56:25.747Z,2.64
2022-12-20T22:58:52.976Z,2.59
2022-12-20T23:01:21.210Z,2.39
2022-12-20T23:03:49.153Z,2.59
2022-12-20T23:06:19.660Z,2.57
2022-12-20T23:08:47.981Z,2.54
2022-12-20T23:11:38.510Z,2.52
2022-12-20T23:14:24.624Z,2.53
2022-12-20T23:16:52.147Z,2.54
2022-12-20T23:19:19.738Z,2.53
2022-12-20T23:22:07.247Z,2.52
2022-12-20T23:24:34.658Z,2.50
2022-12-20T23:27:02.583Z,2.48
2022-12-20T23:29:30.660Z,2.43
2022-12-20T23:31:58.065Z,2.44
2022-12-20T23:34:25.437Z,2.44
2022-12-20T23:36:52.754Z,2.43
2022-12-20T23:39:19.993Z,2.40
2022-12-20T23:41:47.635Z,2.43
2022-12-20T23:44:15.405Z,2.44
2022-12-20T23:46:42.685Z,2.40
2022-12-20T23:49:10.031Z,2.45
2022-12-20T23:51:37.390Z,2.47
2022-12-20T23:54:04.806Z,2.48
2022-12-20T23:56:31.928Z,2.49
2022-12-20T23:59:03.719Z,2.49
